sensor_id;sensor_type;location;lat;lon;timestamp;pressure;altitude;pressure_sealevel;temperature
68911;BMP180;55953;51.650;-0.522;2023-10-08T00:01:11;101566.40;;;16.40
68911;BMP180;55953;51.650;-0.522;2023-10-08T00:03:40;101555.80;;;16.40
68911;BMP180;55953;51.650;-0.522;2023-10-08T00:06:18;101566.20;;;16.30
68911;BMP180;55953;51.650;-0.522;2023-10-08T00:08:50;101561.80;;;16.20
68911;BMP180;55953;51.650;-0.522;2023-10-08T00:11:18;101554.20;;;16.10
68911;BMP180;55953;51.650;-0.522;2023-10-08T00:13:46;101554.00;;;16.10
68911;BMP180;55953;51.650;-0.522;2023-10-08T00:16:16;101558.80;;;16.06
68911;BMP180;55953;51.650;-0.522;2023-10-08T00:18:46;101554.60;;;16.10
68911;BMP180;55953;51.650;-0.522;2023-10-08T00:21:18;101561.00;;;16.00
68911;BMP180;55953;51.650;-0.522;2023-10-08T00:23:47;101567.60;;;16.00
68911;BMP180;55953;51.650;-0.522;2023-10-08T00:26:29;101574.20;;;15.94
68911;BMP180;55953;51.650;-0.522;2023-10-08T00:29:03;101574.60;;;15.96
68911;BMP180;55953;51.650;-0.522;2023-10-08T00:31:34;101575.20;;;15.98
68911;BMP180;55953;51.650;-0.522;2023-10-08T00:34:06;101582.00;;;15.90
68911;BMP180;55953;51.650;-0.522;2023-10-08T00:36:45;101581.20;;;15.90
68911;BMP180;55953;51.650;-0.522;2023-10-08T00:39:14;101579.00;;;16.00
68911;BMP180;55953;51.650;-0.522;2023-10-08T00:41:45;101583.20;;;15.96
68911;BMP180;55953;51.650;-0.522;2023-10-08T00:44:14;101587.40;;;15.94
68911;BMP180;55953;51.650;-0.522;2023-10-08T00:46:51;101592.40;;;15.90
68911;BMP180;55953;51.650;-0.522;2023-10-08T00:49:23;101596.00;;;15.98
68911;BMP180;55953;51.650;-0.522;2023-10-08T00:52:10;101593.60;;;16.00
68911;BMP180;55953;51.650;-0.522;2023-10-08T00:54:40;101597.60;;;16.02
68911;BMP180;55953;51.650;-0.522;2023-10-08T00:57:28;101594.20;;;16.00
68911;BMP180;55953;51.650;-0.522;2023-10-08T00:59:57;101596.00;;;16.00
68911;BMP180;55953;51.650;-0.522;2023-10-08T01:02:29;101591.80;;;16.00
68911;BMP180;55953;51.650;-0.522;2023-10-08T01:05:14;101595.80;;;16.00
68911;BMP180;55953;51.650;-0.522;2023-10-08T01:07:52;101591.60;;;16.00
68911;BMP180;55953;51.650;-0.522;2023-10-08T01:10:23;101593.60;;;16.00
68911;BMP180;55953;51.650;-0.522;2023-10-08T01:12:52;101595.20;;;16.00
68911;BMP180;55953;51.650;-0.522;2023-10-08T01:15:29;101591.80;;;15.98
68911;BMP180;55953;51.650;-0.522;2023-10-08T01:17:58;101585.40;;;15.90
68911;BMP180;55953;51.650;-0.522;2023-10-08T01:20:28;101583.20;;;15.96
68911;BMP180;55953;51.650;-0.522;2023-10-08T01:23:08;101584.40;;;15.94
68911;BMP180;55953;51.650;-0.522;2023-10-08T01:25:49;101581.00;;;15.90
68911;BMP180;55953;51.650;-0.522;2023-10-08T01:28:25;101582.20;;;15.90
68911;BMP180;55953;51.650;-0.522;2023-10-08T01:30:59;101579.80;;;15.90
68911;BMP180;55953;51.650;-0.522;2023-10-08T01:33:32;101576.20;;;15.90
68911;BMP180;55953;51.650;-0.522;2023-10-08T01:36:06;101579.40;;;15.84
68911;BMP180;55953;51.650;-0.522;2023-10-08T01:38:40;101580.60;;;15.90
68911;BMP180;55953;51.650;-0.522;2023-10-08T01:41:17;101577.00;;;15.90
68911;BMP180;55953;51.650;-0.522;2023-10-08T01:43:57;101583.20;;;15.90
68911;BMP180;55953;51.650;-0.522;2023-10-08T01:46:27;101579.00;;;15.90
68911;BMP180;55953;51.650;-0.522;2023-10-08T01:48:55;101576.20;;;15.90
68911;BMP180;55953;51.650;-0.522;2023-10-08T01:51:37;101584.00;;;15.90
68911;BMP180;55953;51.650;-0.522;2023-10-08T01:54:07;101584.00;;;15.90
68911;BMP180;55953;51.650;-0.522;2023-10-08T01:56:41;101587.60;;;16.00
68911;BMP180;55953;51.650;-0.522;2023-10-08T01:59:12;101589.80;;;16.00
68911;BMP180;55953;51.650;-0.522;2023-10-08T02:01:43;101587.20;;;16.00
68911;BMP180;55953;51.650;-0.522;2023-10-08T02:04:13;101595.40;;;16.00
68911;BMP180;55953;51.650;-0.522;2023-10-08T02:06:44;101595.60;;;15.96
68911;BMP180;55953;51.650;-0.522;2023-10-08T02:09:13;101591.40;;;15.90
68911;BMP180;55953;51.650;-0.522;2023-10-08T02:11:48;101587.60;;;15.90
68911;BMP180;55953;51.650;-0.522;2023-10-08T02:14:21;101590.60;;;15.90
68911;BMP180;55953;51.650;-0.522;2023-10-08T02:16:51;101588.00;;;15.80
68911;BMP180;55953;51.650;-0.522;2023-10-08T02:19:23;101583.80;;;15.70
68911;BMP180;55953;51.650;-0.522;2023-10-08T02:21:56;101582.40;;;15.60
68911;BMP180;55953;51.650;-0.522;2023-10-08T02:24:25;101580.20;;;15.50
68911;BMP180;55953;51.650;-0.522;2023-10-08T02:26:54;101576.40;;;15.40
68911;BMP180;55953;51.650;-0.522;2023-10-08T02:29:28;101579.80;;;15.40
68911;BMP180;55953;51.650;-0.522;2023-10-08T02:31:57;101582.40;;;15.40
68911;BMP180;55953;51.650;-0.522;2023-10-08T02:34:26;101585.20;;;15.50
68911;BMP180;55953;51.650;-0.522;2023-10-08T02:36:54;101582.60;;;15.50
68911;BMP180;55953;51.650;-0.522;2023-10-08T02:39:23;101584.20;;;15.40
68911;BMP180;55953;51.650;-0.522;2023-10-08T02:41:54;101577.20;;;15.38
68911;BMP180;55953;51.650;-0.522;2023-10-08T02:44:24;101575.20;;;15.30
68911;BMP180;55953;51.650;-0.522;2023-10-08T02:46:53;101572.40;;;15.40
68911;BMP180;55953;51.650;-0.522;2023-10-08T02:49:22;101568.00;;;15.30
68911;BMP180;55953;51.650;-0.522;2023-10-08T02:51:54;101570.60;;;15.30
68911;BMP180;55953;51.650;-0.522;2023-10-08T02:54:23;101568.20;;;15.30
68911;BMP180;55953;51.650;-0.522;2023-10-08T02:56:58;101567.40;;;15.32
68911;BMP180;55953;51.650;-0.522;2023-10-08T02:59:33;101567.20;;;15.22
68911;BMP180;55953;51.650;-0.522;2023-10-08T03:02:10;101572.80;;;15.10
68911;BMP180;55953;51.650;-0.522;2023-10-08T03:04:52;101567.80;;;15.00
68911;BMP180;55953;51.650;-0.522;2023-10-08T03:07:21;101566.40;;;15.00
68911;BMP180;55953;51.650;-0.522;2023-10-08T03:10:00;101571.80;;;15.00
68911;BMP180;55953;51.650;-0.522;2023-10-08T03:12:33;101575.20;;;15.00
68911;BMP180;55953;51.650;-0.522;2023-10-08T03:15:05;101576.40;;;14.90
68911;BMP180;55953;51.650;-0.522;2023-10-08T03:17:52;101584.60;;;14.80
68911;BMP180;55953;51.650;-0.522;2023-10-08T03:20:21;101591.00;;;14.70
68911;BMP180;55953;51.650;-0.522;2023-10-08T03:23:13;101594.40;;;14.60
68911;BMP180;55953;51.650;-0.522;2023-10-08T03:25:57;101595.60;;;14.54
68911;BMP180;55953;51.650;-0.522;2023-10-08T03:28:45;101597.60;;;14.50
68911;BMP180;55953;51.650;-0.522;2023-10-08T03:31:13;101599.80;;;14.40
68911;BMP180;55953;51.650;-0.522;2023-10-08T03:33:46;101613.40;;;14.40
68911;BMP180;55953;51.650;-0.522;2023-10-08T03:36:19;101609.80;;;14.40
68911;BMP180;55953;51.650;-0.522;2023-10-08T03:39:01;101599.60;;;14.50
68911;BMP180;55953;51.650;-0.522;2023-10-08T03:41:43;101606.00;;;14.40
68911;BMP180;55953;51.650;-0.522;2023-10-08T03:44:19;101611.20;;;14.34
68911;BMP180;55953;51.650;-0.522;2023-10-08T03:46:48;101607.80;;;14.30
68911;BMP180;55953;51.650;-0.522;2023-10-08T03:49:16;101603.80;;;14.20
68911;BMP180;55953;51.650;-0.522;2023-10-08T03:51:51;101608.40;;;14.20
68911;BMP180;55953;51.650;-0.522;2023-10-08T03:54:21;101603.80;;;14.14
68911;BMP180;55953;51.650;-0.522;2023-10-08T03:56:57;101599.60;;;14.14
68911;BMP180;55953;51.650;-0.522;2023-10-08T03:59:25;101601.40;;;14.00
68911;BMP180;55953;51.650;-0.522;2023-10-08T04:02:02;101595.20;;;14.00
68911;BMP180;55953;51.650;-0.522;2023-10-08T04:04:50;101594.80;;;13.90
68911;BMP180;55953;51.650;-0.522;2023-10-08T04:07:27;101590.20;;;13.90
68911;BMP180;55953;51.650;-0.522;2023-10-08T04:10:01;101592.20;;;13.90
68911;BMP180;55953;51.650;-0.522;2023-10-08T04:12:38;101586.60;;;13.90
68911;BMP180;55953;51.650;-0.522;2023-10-08T04:15:13;101587.20;;;13.90
68911;BMP180;55953;51.650;-0.522;2023-10-08T04:17:45;101586.00;;;13.90
68911;BMP180;55953;51.650;-0.522;2023-10-08T04:20:19;101589.20;;;13.90
68911;BMP180;55953;51.650;-0.522;2023-10-08T04:23:09;101587.60;;;13.90
68911;BMP180;55953;51.650;-0.522;2023-10-08T04:25:48;101582.60;;;13.90
68911;BMP180;55953;51.650;-0.522;2023-10-08T04:28:22;101578.20;;;14.00
68911;BMP180;55953;51.650;-0.522;2023-10-08T04:30:56;101578.80;;;14.00
68911;BMP180;55953;51.650;-0.522;2023-10-08T04:33:29;101577.40;;;13.92
68911;BMP180;55953;51.650;-0.522;2023-10-08T04:36:02;101577.60;;;13.90
68911;BMP180;55953;51.650;-0.522;2023-10-08T04:38:30;101576.40;;;13.90
68911;BMP180;55953;51.650;-0.522;2023-10-08T04:41:04;101578.80;;;13.90
68911;BMP180;55953;51.650;-0.522;2023-10-08T04:43:36;101572.00;;;13.86
68911;BMP180;55953;51.650;-0.522;2023-10-08T04:46:05;101567.60;;;13.80
68911;BMP180;55953;51.650;-0.522;2023-10-08T04:48:46;101570.60;;;13.74
68911;BMP180;55953;51.650;-0.522;2023-10-08T04:51:14;101564.40;;;13.70
68911;BMP180;55953;51.650;-0.522;2023-10-08T04:53:42;101560.00;;;13.70
68911;BMP180;55953;51.650;-0.522;2023-10-08T04:56:12;101561.20;;;13.70
68911;BMP180;55953;51.650;-0.522;2023-10-08T04:58:50;101559.80;;;13.80
68911;BMP180;55953;51.650;-0.522;2023-10-08T05:01:19;101557.20;;;13.80
68911;BMP180;55953;51.650;-0.522;2023-10-08T05:04:06;101558.60;;;13.90
68911;BMP180;55953;51.650;-0.522;2023-10-08T05:06:35;101558.40;;;13.80
68911;BMP180;55953;51.650;-0.522;2023-10-08T05:09:04;101556.40;;;13.70
68911;BMP180;55953;51.650;-0.522;2023-10-08T05:11:53;101549.60;;;13.70
68911;BMP180;55953;51.650;-0.522;2023-10-08T05:14:38;101558.00;;;13.60
68911;BMP180;55953;51.650;-0.522;2023-10-08T05:17:23;101562.80;;;13.60
68911;BMP180;55953;51.650;-0.522;2023-10-08T05:20:00;101554.20;;;13.76
68911;BMP180;55953;51.650;-0.522;2023-10-08T05:22:31;101558.60;;;13.72
68911;BMP180;55953;51.650;-0.522;2023-10-08T05:24:59;101555.60;;;13.80
68911;BMP180;55953;51.650;-0.522;2023-10-08T05:27:46;101565.00;;;13.62
68911;BMP180;55953;51.650;-0.522;2023-10-08T05:30:18;101573.00;;;13.70
68911;BMP180;55953;51.650;-0.522;2023-10-08T05:32:56;101566.60;;;13.74
68911;BMP180;55953;51.650;-0.522;2023-10-08T05:35:37;101564.20;;;13.76
68911;BMP180;55953;51.650;-0.522;2023-10-08T05:38:19;101564.60;;;13.60
68911;BMP180;55953;51.650;-0.522;2023-10-08T05:40:52;101566.80;;;13.50
68911;BMP180;55953;51.650;-0.522;2023-10-08T05:43:33;101569.60;;;13.60
68911;BMP180;55953;51.650;-0.522;2023-10-08T05:46:14;101569.20;;;13.60
68911;BMP180;55953;51.650;-0.522;2023-10-08T05:48:50;101568.00;;;13.60
68911;BMP180;55953;51.650;-0.522;2023-10-08T05:51:30;101567.20;;;13.50
68911;BMP180;55953;51.650;-0.522;2023-10-08T05:54:23;101571.40;;;13.50
68911;BMP180;55953;51.650;-0.522;2023-10-08T05:57:07;101570.40;;;13.50
68911;BMP180;55953;51.650;-0.522;2023-10-08T05:59:45;101562.00;;;13.50
68911;BMP180;55953;51.650;-0.522;2023-10-08T06:02:25;101565.20;;;13.40
68911;BMP180;55953;51.650;-0.522;2023-10-08T06:05:08;101559.60;;;13.40
68911;BMP180;55953;51.650;-0.522;2023-10-08T06:07:48;101562.00;;;13.30
68911;BMP180;55953;51.650;-0.522;2023-10-08T06:10:28;101560.80;;;13.32
68911;BMP180;55953;51.650;-0.522;2023-10-08T06:13:02;101561.40;;;13.40
68911;BMP180;55953;51.650;-0.522;2023-10-08T06:15:40;101560.20;;;13.42
68911;BMP180;55953;51.650;-0.522;2023-10-08T06:18:29;101560.80;;;13.40
68911;BMP180;55953;51.650;-0.522;2023-10-08T06:21:06;101562.00;;;13.40
68911;BMP180;55953;51.650;-0.522;2023-10-08T06:23:40;101557.00;;;13.40
68911;BMP180;55953;51.650;-0.522;2023-10-08T06:26:10;101557.40;;;13.40
68911;BMP180;55953;51.650;-0.522;2023-10-08T06:28:40;101552.80;;;13.42
68911;BMP180;55953;51.650;-0.522;2023-10-08T06:31:10;101556.40;;;13.40
68911;BMP180;55953;51.650;-0.522;2023-10-08T06:33:44;101560.60;;;13.40
68911;BMP180;55953;51.650;-0.522;2023-10-08T06:36:12;101565.60;;;13.40
68911;BMP180;55953;51.650;-0.522;2023-10-08T06:38:46;101562.00;;;13.42
68911;BMP180;55953;51.650;-0.522;2023-10-08T06:41:17;101572.20;;;13.40
68911;BMP180;55953;51.650;-0.522;2023-10-08T06:44:01;101574.80;;;13.40
68911;BMP180;55953;51.650;-0.522;2023-10-08T06:46:42;101577.20;;;13.40
68911;BMP180;55953;51.650;-0.522;2023-10-08T06:49:11;101579.00;;;13.40
68911;BMP180;55953;51.650;-0.522;2023-10-08T06:51:42;101578.80;;;13.40
68911;BMP180;55953;51.650;-0.522;2023-10-08T06:54:11;101578.40;;;13.50
68911;BMP180;55953;51.650;-0.522;2023-10-08T06:56:42;101579.00;;;13.50
68911;BMP180;55953;51.650;-0.522;2023-10-08T06:59:15;101580.80;;;13.50
68911;BMP180;55953;51.650;-0.522;2023-10-08T07:01:44;101585.60;;;13.50
68911;BMP180;55953;51.650;-0.522;2023-10-08T07:04:18;101585.80;;;13.60
68911;BMP180;55953;51.650;-0.522;2023-10-08T07:06:50;101586.60;;;13.74
68911;BMP180;55953;51.650;-0.522;2023-10-08T07:09:18;101587.60;;;13.80
68911;BMP180;55953;51.650;-0.522;2023-10-08T07:11:56;101591.60;;;13.90
68911;BMP180;55953;51.650;-0.522;2023-10-08T07:14:27;101592.80;;;14.02
68911;BMP180;55953;51.650;-0.522;2023-10-08T07:16:59;101592.80;;;14.20
68911;BMP180;55953;51.650;-0.522;2023-10-08T07:19:30;101596.40;;;14.40
68911;BMP180;55953;51.650;-0.522;2023-10-08T07:22:08;101599.80;;;14.50
68911;BMP180;55953;51.650;-0.522;2023-10-08T07:24:56;101596.20;;;14.60
68911;BMP180;55953;51.650;-0.522;2023-10-08T07:27:25;101594.80;;;14.70
68911;BMP180;55953;51.650;-0.522;2023-10-08T07:30:00;101594.00;;;14.70
68911;BMP180;55953;51.650;-0.522;2023-10-08T07:32:31;101596.00;;;14.80
68911;BMP180;55953;51.650;-0.522;2023-10-08T07:34:59;101591.00;;;14.90
68911;BMP180;55953;51.650;-0.522;2023-10-08T07:37:47;101591.20;;;14.90
68911;BMP180;55953;51.650;-0.522;2023-10-08T07:40:15;101583.80;;;14.90
68911;BMP180;55953;51.650;-0.522;2023-10-08T07:42:43;101581.60;;;14.90
68911;BMP180;55953;51.650;-0.522;2023-10-08T07:45:11;101584.60;;;15.00
68911;BMP180;55953;51.650;-0.522;2023-10-08T07:47:45;101589.60;;;15.00
68911;BMP180;55953;51.650;-0.522;2023-10-08T07:50:14;101591.20;;;15.00
68911;BMP180;55953;51.650;-0.522;2023-10-08T07:52:44;101596.20;;;15.20
68911;BMP180;55953;51.650;-0.522;2023-10-08T07:55:12;101590.20;;;15.30
68911;BMP180;55953;51.650;-0.522;2023-10-08T07:57:46;101595.40;;;15.40
68911;BMP180;55953;51.650;-0.522;2023-10-08T08:00:15;101600.40;;;15.50
68911;BMP180;55953;51.650;-0.522;2023-10-08T08:02:47;101599.40;;;15.60
68911;BMP180;55953;51.650;-0.522;2023-10-08T08:05:15;101596.40;;;15.70
68911;BMP180;55953;51.650;-0.522;2023-10-08T08:07:44;101594.40;;;15.80
68911;BMP180;55953;51.650;-0.522;2023-10-08T08:10:13;101593.80;;;16.00
68911;BMP180;55953;51.650;-0.522;2023-10-08T08:12:41;101594.40;;;16.20
68911;BMP180;55953;51.650;-0.522;2023-10-08T08:15:10;101596.60;;;16.30
68911;BMP180;55953;51.650;-0.522;2023-10-08T08:17:44;101593.40;;;16.30
68911;BMP180;55953;51.650;-0.522;2023-10-08T08:20:15;101593.60;;;16.40
68911;BMP180;55953;51.650;-0.522;2023-10-08T08:22:46;101589.80;;;16.50
68911;BMP180;55953;51.650;-0.522;2023-10-08T08:25:17;101593.00;;;16.52
68911;BMP180;55953;51.650;-0.522;2023-10-08T08:28:01;101592.80;;;16.70
68911;BMP180;55953;51.650;-0.522;2023-10-08T08:30:32;101590.60;;;16.86
68911;BMP180;55953;51.650;-0.522;2023-10-08T08:33:02;101588.80;;;17.00
68911;BMP180;55953;51.650;-0.522;2023-10-08T08:35:38;101586.60;;;17.04
68911;BMP180;55953;51.650;-0.522;2023-10-08T08:38:06;101587.20;;;17.20
68911;BMP180;55953;51.650;-0.522;2023-10-08T08:40:36;101589.60;;;17.30
68911;BMP180;55953;51.650;-0.522;2023-10-08T08:43:05;101592.80;;;17.40
68911;BMP180;55953;51.650;-0.522;2023-10-08T08:45:35;101592.00;;;17.40
68911;BMP180;55953;51.650;-0.522;2023-10-08T08:48:05;101594.20;;;17.60
68911;BMP180;55953;51.650;-0.522;2023-10-08T08:50:36;101598.00;;;17.70
68911;BMP180;55953;51.650;-0.522;2023-10-08T08:53:06;101599.60;;;17.80
68911;BMP180;55953;51.650;-0.522;2023-10-08T08:55:34;101595.80;;;17.90
68911;BMP180;55953;51.650;-0.522;2023-10-08T08:58:04;101594.20;;;18.00
68911;BMP180;55953;51.650;-0.522;2023-10-08T09:00:33;101592.60;;;18.08
68911;BMP180;55953;51.650;-0.522;2023-10-08T09:03:01;101591.80;;;18.26
68911;BMP180;55953;51.650;-0.522;2023-10-08T09:05:35;101592.00;;;18.38
68911;BMP180;55953;51.650;-0.522;2023-10-08T09:08:05;101594.20;;;18.42
68911;BMP180;55953;51.650;-0.522;2023-10-08T09:10:36;101599.20;;;18.50
68911;BMP180;55953;51.650;-0.522;2023-10-08T09:13:07;101597.80;;;18.60
68911;BMP180;55953;51.650;-0.522;2023-10-08T09:15:37;101601.00;;;18.70
68911;BMP180;55953;51.650;-0.522;2023-10-08T09:18:06;101599.20;;;18.70
68911;BMP180;55953;51.650;-0.522;2023-10-08T09:20:37;101607.80;;;18.80
68911;BMP180;55953;51.650;-0.522;2023-10-08T09:23:16;101613.40;;;18.90
68911;BMP180;55953;51.650;-0.522;2023-10-08T09:25:49;101611.80;;;19.10
68911;BMP180;55953;51.650;-0.522;2023-10-08T09:28:18;101614.20;;;19.10
68911;BMP180;55953;51.650;-0.522;2023-10-08T09:30:46;101619.40;;;19.20
68911;BMP180;55953;51.650;-0.522;2023-10-08T09:33:16;101625.00;;;19.30
68911;BMP180;55953;51.650;-0.522;2023-10-08T09:35:46;101628.20;;;19.32
68911;BMP180;55953;51.650;-0.522;2023-10-08T09:38:15;101628.60;;;19.40
68911;BMP180;55953;51.650;-0.522;2023-10-08T09:40:52;101629.20;;;19.48
68911;BMP180;55953;51.650;-0.522;2023-10-08T09:43:22;101632.80;;;19.60
68911;BMP180;55953;51.650;-0.522;2023-10-08T09:46:18;101637.40;;;19.70
68911;BMP180;55953;51.650;-0.522;2023-10-08T09:48:51;101641.40;;;19.80
68911;BMP180;55953;51.650;-0.522;2023-10-08T09:51:32;101641.00;;;19.76
68911;BMP180;55953;51.650;-0.522;2023-10-08T09:54:16;101642.60;;;19.72
68911;BMP180;55953;51.650;-0.522;2023-10-08T09:56:46;101641.80;;;19.76
68911;BMP180;55953;51.650;-0.522;2023-10-08T09:59:16;101647.80;;;19.70
68911;BMP180;55953;51.650;-0.522;2023-10-08T10:01:44;101640.80;;;19.80
68911;BMP180;55953;51.650;-0.522;2023-10-08T10:04:23;101637.60;;;20.00
68911;BMP180;55953;51.650;-0.522;2023-10-08T10:07:09;101637.40;;;20.10
68911;BMP180;55953;51.650;-0.522;2023-10-08T10:09:44;101632.60;;;20.20
68911;BMP180;55953;51.650;-0.522;2023-10-08T10:12:26;101627.40;;;20.30
68911;BMP180;55953;51.650;-0.522;2023-10-08T10:14:55;101630.80;;;20.50
68911;BMP180;55953;51.650;-0.522;2023-10-08T10:17:27;101624.40;;;20.52
68911;BMP180;55953;51.650;-0.522;2023-10-08T10:20:11;101626.00;;;20.70
68911;BMP180;55953;51.650;-0.522;2023-10-08T10:22:43;101628.00;;;20.80
68911;BMP180;55953;51.650;-0.522;2023-10-08T10:25:16;101628.00;;;20.90
68911;BMP180;55953;51.650;-0.522;2023-10-08T10:30:22;101630.40;;;21.06
68911;BMP180;55953;51.650;-0.522;2023-10-08T10:32:52;101631.80;;;21.20
68911;BMP180;55953;51.650;-0.522;2023-10-08T10:35:20;101634.80;;;21.32
68911;BMP180;55953;51.650;-0.522;2023-10-08T10:37:48;101632.40;;;21.40
68911;BMP180;55953;51.650;-0.522;2023-10-08T10:40:24;101630.60;;;21.50
68911;BMP180;55953;51.650;-0.522;2023-10-08T10:43:08;101633.80;;;21.60
68911;BMP180;55953;51.650;-0.522;2023-10-08T10:45:43;101627.80;;;21.60
68911;BMP180;55953;51.650;-0.522;2023-10-08T10:48:12;101633.00;;;21.68
68911;BMP180;55953;51.650;-0.522;2023-10-08T10:50:49;101633.20;;;21.70
68911;BMP180;55953;51.650;-0.522;2023-10-08T10:53:38;101639.80;;;21.60
68911;BMP180;55953;51.650;-0.522;2023-10-08T10:56:27;101643.20;;;21.60
68911;BMP180;55953;51.650;-0.522;2023-10-08T10:58:59;101637.40;;;21.60
68911;BMP180;55953;51.650;-0.522;2023-10-08T11:01:27;101635.40;;;21.60
68911;BMP180;55953;51.650;-0.522;2023-10-08T11:03:57;101636.20;;;21.70
68911;BMP180;55953;51.650;-0.522;2023-10-08T11:06:26;101640.80;;;21.70
68911;BMP180;55953;51.650;-0.522;2023-10-08T11:08:54;101641.40;;;21.70
68911;BMP180;55953;51.650;-0.522;2023-10-08T11:11:28;101642.00;;;21.70
68911;BMP180;55953;51.650;-0.522;2023-10-08T11:14:00;101640.40;;;21.80
68911;BMP180;55953;51.650;-0.522;2023-10-08T11:16:28;101645.20;;;21.80
68911;BMP180;55953;51.650;-0.522;2023-10-08T11:18:59;101643.40;;;21.90
68911;BMP180;55953;51.650;-0.522;2023-10-08T11:21:51;101639.80;;;21.90
68911;BMP180;55953;51.650;-0.522;2023-10-08T11:24:31;101637.80;;;21.90
68911;BMP180;55953;51.650;-0.522;2023-10-08T11:27:02;101634.40;;;21.90
68911;BMP180;55953;51.650;-0.522;2023-10-08T11:29:49;101633.00;;;21.86
68911;BMP180;55953;51.650;-0.522;2023-10-08T11:32:26;101631.00;;;21.80
68911;BMP180;55953;51.650;-0.522;2023-10-08T11:34:58;101627.60;;;21.80
68911;BMP180;55953;51.650;-0.522;2023-10-08T11:37:30;101630.40;;;21.80
68911;BMP180;55953;51.650;-0.522;2023-10-08T11:40:02;101624.00;;;21.80
68911;BMP180;55953;51.650;-0.522;2023-10-08T11:42:44;101616.80;;;21.90
68911;BMP180;55953;51.650;-0.522;2023-10-08T11:45:12;101620.40;;;21.90
68911;BMP180;55953;51.650;-0.522;2023-10-08T11:47:47;101614.00;;;22.00
68911;BMP180;55953;51.650;-0.522;2023-10-08T11:50:25;101613.60;;;22.00
68911;BMP180;55953;51.650;-0.522;2023-10-08T11:53:02;101614.00;;;22.10
68911;BMP180;55953;51.650;-0.522;2023-10-08T11:55:34;101615.00;;;22.10
68911;BMP180;55953;51.650;-0.522;2023-10-08T11:58:05;101609.60;;;22.20
68911;BMP180;55953;51.650;-0.522;2023-10-08T12:00:41;101605.00;;;22.20
68911;BMP180;55953;51.650;-0.522;2023-10-08T12:03:15;101601.60;;;22.30
68911;BMP180;55953;51.650;-0.522;2023-10-08T12:05:48;101597.80;;;22.30
68911;BMP180;55953;51.650;-0.522;2023-10-08T12:08:19;101602.00;;;22.30
68911;BMP180;55953;51.650;-0.522;2023-10-08T12:10:48;101604.00;;;22.30
68911;BMP180;55953;51.650;-0.522;2023-10-08T12:13:22;101601.60;;;22.40
68911;BMP180;55953;51.650;-0.522;2023-10-08T12:15:54;101594.80;;;22.40
68911;BMP180;55953;51.650;-0.522;2023-10-08T12:18:39;101591.00;;;22.50
68911;BMP180;55953;51.650;-0.522;2023-10-08T12:21:09;101584.00;;;22.56
68911;BMP180;55953;51.650;-0.522;2023-10-08T12:23:39;101584.00;;;22.60
68911;BMP180;55953;51.650;-0.522;2023-10-08T12:26:07;101585.00;;;22.70
68911;BMP180;55953;51.650;-0.522;2023-10-08T12:28:37;101587.20;;;22.70
68911;BMP180;55953;51.650;-0.522;2023-10-08T12:31:05;101582.00;;;22.80
68911;BMP180;55953;51.650;-0.522;2023-10-08T12:33:33;101574.60;;;22.90
68911;BMP180;55953;51.650;-0.522;2023-10-08T12:36:02;101568.40;;;22.90
68911;BMP180;55953;51.650;-0.522;2023-10-08T12:38:41;101569.80;;;23.00
68911;BMP180;55953;51.650;-0.522;2023-10-08T12:41:11;101562.60;;;23.00
68911;BMP180;55953;51.650;-0.522;2023-10-08T12:43:43;101561.00;;;23.00
68911;BMP180;55953;51.650;-0.522;2023-10-08T12:46:21;101555.20;;;23.00
68911;BMP180;55953;51.650;-0.522;2023-10-08T12:48:53;101558.00;;;23.00
68911;BMP180;55953;51.650;-0.522;2023-10-08T12:51:24;101560.00;;;23.10
68911;BMP180;55953;51.650;-0.522;2023-10-08T12:53:54;101562.00;;;23.16
68911;BMP180;55953;51.650;-0.522;2023-10-08T12:56:31;101553.80;;;23.10
68911;BMP180;55953;51.650;-0.522;2023-10-08T12:59:16;101548.00;;;23.20
68911;BMP180;55953;51.650;-0.522;2023-10-08T13:01:52;101545.00;;;23.20
68911;BMP180;55953;51.650;-0.522;2023-10-08T13:04:23;101543.20;;;23.20
68911;BMP180;55953;51.650;-0.522;2023-10-08T13:06:58;101547.80;;;23.30
68911;BMP180;55953;51.650;-0.522;2023-10-08T13:09:30;101544.20;;;23.30
68911;BMP180;55953;51.650;-0.522;2023-10-08T13:12:05;101539.00;;;23.40
68911;BMP180;55953;51.650;-0.522;2023-10-08T13:14:33;101533.40;;;23.42
68911;BMP180;55953;51.650;-0.522;2023-10-08T13:17:04;101532.40;;;23.48
68911;BMP180;55953;51.650;-0.522;2023-10-08T13:19:32;101524.20;;;23.50
68911;BMP180;55953;51.650;-0.522;2023-10-08T13:22:02;101518.40;;;23.60
68911;BMP180;55953;51.650;-0.522;2023-10-08T13:24:35;101506.20;;;23.62
68911;BMP180;55953;51.650;-0.522;2023-10-08T13:27:09;101515.00;;;23.60
68911;BMP180;55953;51.650;-0.522;2023-10-08T13:29:37;101517.40;;;23.62
68911;BMP180;55953;51.650;-0.522;2023-10-08T13:32:04;101515.40;;;23.70
68911;BMP180;55953;51.650;-0.522;2023-10-08T13:34:32;101514.80;;;23.70
68911;BMP180;55953;51.650;-0.522;2023-10-08T13:37:00;101519.00;;;23.60
68911;BMP180;55953;51.650;-0.522;2023-10-08T13:39:28;101516.40;;;23.50
68911;BMP180;55953;51.650;-0.522;2023-10-08T13:41:56;101509.60;;;23.50
68911;BMP180;55953;51.650;-0.522;2023-10-08T13:44:29;101505.80;;;23.50
68911;BMP180;55953;51.650;-0.522;2023-10-08T13:46:58;101508.80;;;23.50
68911;BMP180;55953;51.650;-0.522;2023-10-08T13:49:28;101504.80;;;23.60
68911;BMP180;55953;51.650;-0.522;2023-10-08T13:51:59;101504.40;;;23.60
68911;BMP180;55953;51.650;-0.522;2023-10-08T13:54:28;101498.40;;;23.60
68911;BMP180;55953;51.650;-0.522;2023-10-08T13:57:00;101499.80;;;23.70
68911;BMP180;55953;51.650;-0.522;2023-10-08T13:59:30;101490.60;;;23.62
68911;BMP180;55953;51.650;-0.522;2023-10-08T14:02:00;101492.80;;;23.60
68911;BMP180;55953;51.650;-0.522;2023-10-08T14:04:42;101486.60;;;23.60
68911;BMP180;55953;51.650;-0.522;2023-10-08T14:07:13;101486.40;;;23.60
68911;BMP180;55953;51.650;-0.522;2023-10-08T14:09:45;101484.00;;;23.60
68911;BMP180;55953;51.650;-0.522;2023-10-08T14:12:14;101485.80;;;23.70
68911;BMP180;55953;51.650;-0.522;2023-10-08T14:14:42;101482.80;;;23.80
68911;BMP180;55953;51.650;-0.522;2023-10-08T14:17:14;101489.40;;;23.80
68911;BMP180;55953;51.650;-0.522;2023-10-08T14:19:43;101481.20;;;23.86
68911;BMP180;55953;51.650;-0.522;2023-10-08T14:22:14;101480.40;;;23.80